Time;durP1;ratioP1;P1;durP2;ratioP2;P2;SDS_P1;SDS_P2;PMS_P1;PMS_P2;Temp;Humidity;BMP_temperature;BMP_pressure;BME280_temperature;BME280_humidity;BME280_pressure;Samples;Min_cycle;Max_cycle;Signal;HPM_P1;HPM_P2
2022/11/09 16:31:07;;;;;;;2.80;1.40;;;;;;;;;;5130903;27;20560;-89
2022/11/09 16:33:34;;;;;;;1.83;1.60;;;;;;;;;;5131217;28;20445;-83
2022/11/09 16:36:04;;;;;;;2.37;1.67;;;12.40;99.90;;;;;;5130246;28;20847;-85
2022/11/09 16:38:38;;;;;;;1.90;1.70;;;12.40;99.90;;;;;;5130352;28;20443;-82
2022/11/09 16:41:05;;;;;;;3.57;1.93;;;;;;;;;;5131195;28;20463;-86
2022/11/09 16:43:33;;;;;;;2.23;2.03;;;;;;;;;;5113903;28;20462;-88
2022/11/09 16:46:00;;;;;;;5.57;1.70;;;;;;;;;;5110209;28;20444;-83
2022/11/09 16:48:28;;;;;;;1.57;1.47;;;;;;;;;;5109897;28;20811;-85
2022/11/09 16:50:56;;;;;;;3.03;1.17;;;;;;;;;;5109939;28;20574;-84
2022/11/09 16:53:23;;;;;;;2.90;1.87;;;;;;;;;;5109872;28;20460;-83
2022/11/09 16:55:50;;;;;;;3.60;2.10;;;;;;;;;;5110199;28;20535;-83
2022/11/09 16:58:17;;;;;;;2.90;1.87;;;;;;;;;;5108538;28;20813;-86
2022/11/09 17:00:45;;;;;;;2.20;1.60;;;;;;;;;;5109837;28;20448;-81
2022/11/09 17:03:13;;;;;;;1.63;1.53;;;;;;;;;;5109835;28;20801;-87
2022/11/09 17:05:41;;;;;;;2.90;1.80;;;;;;;;;;5109659;28;20448;-83
2022/11/09 17:08:10;;;;;;;4.23;2.27;;;12.20;99.90;;;;;;5109801;28;20450;-83
2022/11/09 17:10:41;;;;;;;3.37;1.80;;;12.10;99.90;;;;;;5109545;28;20495;-82
2022/11/09 17:13:08;;;;;;;2.07;1.40;;;;;;;;;;5109672;28;20448;-80
2022/11/09 17:15:39;;;;;;;7.20;3.17;;;12.10;99.90;;;;;;5108707;28;20540;-82
2022/11/09 17:18:08;;;;;;;2.53;1.80;;;;;;;;;;5109314;28;20451;-82
2022/11/09 17:20:35;;;;;;;4.57;1.80;;;;;;;;;;5108489;28;20847;-82
2022/11/09 17:23:04;;;;;;;6.03;2.10;;;;;;;;;;5109455;28;20539;-80
2022/11/09 17:25:34;;;;;;;5.13;2.83;;;;;;;;;;5109452;28;20455;-82
2022/11/09 17:28:02;;;;;;;3.77;2.77;;;;;;;;;;5109481;28;20452;-81
2022/11/09 17:30:29;;;;;;;3.03;2.63;;;;;;;;;;5107982;28;20576;-79
2022/11/09 17:32:56;;;;;;;6.40;2.30;;;;;;;;;;5108973;28;21003;-81
2022/11/09 17:35:24;;;;;;;5.00;2.03;;;;;;;;;;5109039;28;20455;-84
2022/11/09 17:37:52;;;;;;;2.93;2.30;;;;;;;;;;5106150;28;20513;-83
2022/11/09 17:40:20;;;;;;;4.33;1.70;;;;;;;;;;5104949;28;20468;-83
2022/11/09 17:42:48;;;;;;;1.83;1.63;;;11.90;99.90;;;;;;5090242;28;20962;-79
2022/11/09 17:45:15;;;;;;;7.40;2.10;;;;;;;;;;5094048;28;20456;-80
2022/11/09 17:47:42;;;;;;;2.80;2.40;;;;;;;;;;5095263;28;20445;-78
2022/11/09 17:50:09;;;;;;;3.40;2.23;;;;;;;;;;5095161;28;21026;-78
2022/11/09 17:52:36;;;;;;;3.27;2.60;;;;;;;;;;5095231;28;20444;-83
2022/11/09 17:55:04;;;;;;;2.40;2.07;;;;;;;;;;5095079;28;20451;-83
2022/11/09 17:57:32;;;;;;;4.40;2.10;;;;;;;;;;5094923;28;20449;-82
2022/11/09 17:59:59;;;;;;;3.67;2.00;;;;;;;;;;5092618;28;20947;-81
2022/11/09 18:02:27;;;;;;;4.43;4.00;;;;;;;;;;5089827;28;20441;-84
2022/11/09 18:04:54;;;;;;;4.30;3.73;;;;;;;;;;5094657;28;20452;-81
2022/11/09 18:07:21;;;;;;;4.30;3.03;;;;;;;;;;5094993;28;20801;-81
2022/11/09 18:09:48;;;;;;;3.50;3.20;;;;;;;;;;5094661;28;20492;-83
2022/11/09 18:12:16;;;;;;;7.23;4.60;;;;;;;;;;5091850;28;20460;-82
2022/11/09 18:14:44;;;;;;;3.17;2.87;;;11.80;99.90;;;;;;5088567;28;20947;-80
2022/11/09 18:17:12;;;;;;;4.53;3.40;;;;;;;;;;5095269;28;20451;-81
2022/11/09 18:19:39;;;;;;;5.73;3.13;;;;;;;;;;5094808;28;20816;-81
2022/11/09 18:22:07;;;;;;;3.50;3.07;;;11.80;99.90;;;;;;5094825;28;20452;-85
2022/11/09 18:24:35;;;;;;;2.00;1.80;;;;;;;;;;5092850;28;20445;-83
2022/11/09 18:27:03;;;;;;;3.40;2.13;;;;;;;;;;5091659;28;20445;-81
2022/11/09 18:29:31;;;;;;;3.27;2.97;;;;;;;;;;5093129;28;20975;-81
2022/11/09 18:32:00;;;;;;;3.50;2.70;;;;;;;;;;5088708;28;20505;-83
2022/11/09 18:34:27;;;;;;;2.87;2.57;;;;;;;;;;5094522;28;20934;-82
2022/11/09 18:36:55;;;;;;;3.53;2.50;;;;;;;;;;5094221;28;20483;-82
2022/11/09 18:39:25;;;;;;;5.40;3.33;;;;;;;;;;5094443;28;20926;-81
2022/11/09 18:41:53;;;;;;;3.47;2.20;;;;;;;;;;5094266;28;20858;-86
2022/11/09 18:44:20;;;;;;;4.23;3.63;;;;;;;;;;5093114;28;20452;-83
2022/11/09 18:46:47;;;;;;;4.97;4.47;;;;;;;;;;5094188;28;20461;-82
2022/11/09 18:49:16;;;;;;;6.27;4.60;;;;;;;;;;5091244;28;20453;-82
2022/11/09 18:51:44;;;;;;;4.03;3.43;;;;;;;;;;5094246;28;20445;-84
2022/11/09 18:54:11;;;;;;;5.73;3.63;;;;;;;;;;5093089;28;20448;-80
2022/11/09 18:56:38;;;;;;;4.87;3.63;;;;;;;;;;5094089;28;20452;-81
2022/11/09 18:59:05;;;;;;;4.53;4.10;;;;;;;;;;5093060;28;20445;-82
2022/11/09 19:01:32;;;;;;;12.33;9.53;;;;;;;;;;5094068;28;20449;-81
2022/11/09 19:04:00;;;;;;;5.30;4.00;;;;;;;;;;5093788;28;20453;-77
2022/11/09 19:06:30;;;;;;;4.23;3.50;;;;;;;;;;5093805;28;20536;-79
2022/11/09 19:11:42;;;;;;;3.40;3.17;;;;;;;;;;5093706;28;20543;-79
2022/11/09 19:14:09;;;;;;;2.53;2.33;;;;;;;;;;5092449;28;20539;-83
2022/11/09 19:16:36;;;;;;;1.70;1.60;;;;;;;;;;5093671;28;20445;-81
2022/11/09 19:19:04;;;;;;;2.97;2.50;;;;;;;;;;5093987;28;20453;-81
2022/11/09 19:21:38;;;;;;;7.90;4.90;;;11.60;99.90;;;;;;5093682;28;20471;-83
2022/11/09 19:24:07;;;;;;;3.40;2.80;;;11.60;99.90;;;;;;5090450;28;20547;-82
2022/11/09 19:26:35;;;;;;;4.40;3.97;;;11.60;99.90;;;;;;5093449;28;20453;-79
2022/11/09 19:29:02;;;;;;;3.73;3.17;;;;;;;;;;5089061;28;20481;-80
2022/11/09 19:31:29;;;;;;;4.00;1.70;;;;;;;;;;5093212;28;20501;-81
2022/11/09 19:33:57;;;;;;;1.70;1.60;;;;;;;;;;5093669;28;20545;-82
2022/11/09 19:36:25;;;;;;;1.77;1.50;;;11.50;99.90;;;;;;5091205;28;20453;-84
2022/11/09 19:38:54;;;;;;;2.47;1.93;;;;;;;;;;5093385;28;20528;-82
2022/11/09 19:41:21;;;;;;;1.80;1.70;;;;;;;;;;5093328;28;20456;-81
2022/11/09 19:43:53;;;;;;;3.40;3.07;;;;;;;;;;5092371;28;21023;-81
2022/11/09 19:46:20;;;;;;;7.03;3.70;;;;;;;;;;5093651;28;20449;-82
2022/11/09 19:48:47;;;;;;;8.77;4.33;;;;;;;;;;5094267;28;20459;-81
2022/11/09 19:51:16;;;;;;;5.57;4.37;;;11.50;99.90;;;;;;5093008;28;20502;-87
2022/11/09 19:53:43;;;;;;;25.87;14.73;;;;;;;;;;5093172;28;20443;-82
2022/11/09 19:56:11;;;;;;;10.93;6.57;;;;;;;;;;5093127;28;20444;-80
2022/11/09 19:58:39;;;;;;;6.47;3.70;;;;;;;;;;5091978;28;20534;-84
2022/11/09 20:01:07;;;;;;;3.47;2.17;;;11.50;99.90;;;;;;5093132;28;20452;-84
2022/11/09 20:03:34;;;;;;;6.43;2.37;;;;;;;;;;5092943;28;20823;-79
2022/11/09 20:06:01;;;;;;;9.07;5.97;;;;;;;;;;5093207;28;20445;-87
2022/11/09 20:08:29;;;;;;;10.03;4.83;;;;;;;;;;5093733;28;20445;-87
2022/11/09 20:10:56;;;;;;;3.43;2.60;;;;;;;;;;5092855;28;20566;-86
2022/11/09 20:13:23;;;;;;;5.40;3.57;;;;;;;;;;5092086;28;20464;-86
2022/11/09 20:15:50;;;;;;;4.03;2.37;;;;;;;;;;5093057;28;20482;-85
2022/11/09 20:18:19;;;;;;;4.00;2.10;;;;;;;;;;5093099;28;20815;-84
2022/11/09 20:20:46;;;;;;;3.33;2.47;;;;;;;;;;5093252;28;20484;-87
2022/11/09 20:23:13;;;;;;;3.13;1.80;;;;;;;;;;5093075;28;20445;-83
2022/11/09 20:25:40;;;;;;;2.30;1.67;;;;;;;;;;5093255;28;20448;-86
2022/11/09 20:28:07;;;;;;;1.90;1.70;;;;;;;;;;5092862;28;20943;-86
2022/11/09 20:30:39;;;;;;;3.40;1.70;;;11.30;99.90;;;;;;5091892;28;20504;-90
2022/11/09 20:33:06;;;;;;;5.00;2.80;;;;;;;;;;5095173;28;20544;-90
2022/11/09 20:35:33;;;;;;;9.20;2.00;;;;;;;;;;5096430;28;20456;-91
2022/11/09 20:38:00;;;;;;;2.77;1.60;;;;;;;;;;5106645;28;20536;-91
2022/11/09 20:40:27;;;;;;;1.57;0.90;;;;;;;;;;5113550;28;20449;-89
2022/11/09 20:42:55;;;;;;;2.20;1.27;;;;;;;;;;5097214;28;20445;-92
2022/11/09 20:45:22;;;;;;;4.10;2.07;;;;;;;;;;5093734;28;20452;-89
2022/11/09 20:47:50;;;;;;;2.90;1.57;;;;;;;;;;5093396;28;20444;-87
2022/11/09 20:50:17;;;;;;;1.53;1.40;;;;;;;;;;5093350;28;20481;-86
2022/11/09 20:52:45;;;;;;;2.43;1.20;;;;;;;;;;5093732;28;20452;-90
2022/11/09 20:55:13;;;;;;;1.73;1.63;;;;;;;;;;5093933;28;20457;-87
2022/11/09 20:57:41;;;;;;;2.00;0.97;;;;;;;;;;5094169;28;20448;-89
2022/11/09 21:00:08;;;;;;;3.57;2.60;;;;;;;;;;5092625;28;20505;-89
2022/11/09 21:02:35;;;;;;;3.70;2.23;;;;;;;;;;5093401;28;20514;-89
2022/11/09 21:05:04;;;;;;;2.50;1.87;;;;;;;;;;5096945;28;20444;-90
2022/11/09 21:07:31;;;;;;;2.37;1.57;;;;;;;;;;5093482;28;20475;-87
2022/11/09 21:09:59;;;;;;;3.03;2.03;;;;;;;;;;5093124;28;20445;-88
2022/11/09 21:12:28;;;;;;;1.87;1.30;;;;;;;;;;5094245;28;20448;-89
2022/11/09 21:14:55;;;;;;;3.83;2.10;;;;;;;;;;5095758;28;20820;-90
2022/11/09 21:17:22;;;;;;;4.73;2.30;;;;;;;;;;5097143;28;20484;-89
2022/11/09 21:19:51;;;;;;;2.73;1.43;;;;;;;;;;5097638;28;20884;-88
2022/11/09 21:22:19;;;;;;;1.73;1.63;;;;;;;;;;5097560;28;20453;-91
2022/11/09 21:30:19;;;;;;;18.97;9.57;;;;;;;;;;5077068;28;20468;-88
2022/11/09 21:32:46;;;;;;;34.97;15.90;;;;;;;;;;5096132;28;20448;-88
2022/11/09 21:35:13;;;;;;;9.10;5.57;;;;;;;;;;5096426;28;20458;-88
2022/11/09 21:37:41;;;;;;;12.47;6.80;;;11.00;99.90;;;;;;5096720;28;20436;-83
2022/11/09 21:40:09;;;;;;;2.90;2.23;;;;;;;;;;5097934;28;20441;-89
2022/11/09 21:42:42;;;;;;;7.43;3.67;;;;;;;;;;5097044;28;20448;-92
2022/11/09 21:49:07;;;;;;;22.20;11.37;;;;;;;;;;5031433;22;20840;-90
2022/11/09 21:54:41;;;;;;;17.57;7.47;;;;;;;;;;5176471;22;20485;-88
2022/11/09 21:57:44;;;;;;;3.80;2.10;;;;;;;;;;5056402;28;20450;-90
2022/11/09 22:16:05;;;;;;;5.73;3.17;;;;;;;;;;5048291;28;20470;-92
2022/11/09 22:16:57;;;;;;;20.60;8.90;;;;;;;;;;5056033;28;20465;-89
2022/11/09 22:22:24;;;;;;;3.03;2.20;;;;;;;;;;5055807;28;20454;-91
2022/11/09 22:24:52;;;;;;;4.27;2.43;;;;;;;;;;5021728;28;20522;-90
2022/11/09 22:27:21;;;;;;;9.13;4.33;;;;;;;;;;5056264;28;20521;-92
2022/11/09 22:29:54;;;;;;;5.57;4.10;;;;;;;;;;5055244;28;20894;-90
2022/11/09 22:32:21;;;;;;;5.87;3.30;;;;;;;;;;5054637;28;20509;-84
2022/11/09 22:34:48;;;;;;;5.47;3.50;;;;;;;;;;5052740;28;20461;-83
2022/11/09 22:37:16;;;;;;;2.77;1.73;;;;;;;;;;5054847;28;20454;-85
2022/11/09 22:39:43;;;;;;;3.73;2.00;;;;;;;;;;5054909;28;20483;-87
2022/11/09 22:42:13;;;;;;;1.90;1.43;;;;;;;;;;5055130;28;20488;-86
2022/11/09 22:44:41;;;;;;;4.97;3.27;;;;;;;;;;5053133;28;20474;-85
2022/11/09 22:47:08;;;;;;;8.60;4.50;;;;;;;;;;5055256;28;20533;-84
2022/11/09 22:49:36;;;;;;;6.60;3.47;;;;;;;;;;5054150;28;20447;-85
2022/11/09 22:52:04;;;;;;;6.97;3.93;;;;;;;;;;5054278;28;20501;-85
2022/11/09 22:54:31;;;;;;;5.97;3.50;;;;;;;;;;5054340;28;20534;-85
2022/11/09 22:56:58;;;;;;;19.03;13.77;;;;;;;;;;5054668;28;20439;-85
2022/11/09 22:59:25;;;;;;;6.70;4.43;;;;;;;;;;5054798;28;20811;-84
2022/11/09 23:01:54;;;;;;;4.17;3.23;;;;;;;;;;5053877;28;20442;-87
2022/11/09 23:04:21;;;;;;;3.43;3.00;;;;;;;;;;5054272;28;20442;-85
2022/11/09 23:06:48;;;;;;;2.13;1.87;;;;;;;;;;5053797;28;20552;-85
2022/11/09 23:09:15;;;;;;;5.00;4.60;;;;;;;;;;5055235;28;20447;-85
2022/11/09 23:11:42;;;;;;;2.47;2.20;;;;;;;;;;5069567;28;20525;-85
2022/11/09 23:14:10;;;;;;;1.43;1.30;;;;;;;;;;5054733;28;20593;-85
2022/11/09 23:16:37;;;;;;;1.77;1.47;;;;;;;;;;5048529;28;20535;-82
2022/11/09 23:19:04;;;;;;;1.60;1.07;;;;;;;;;;5053530;28;20486;-84
2022/11/09 23:21:33;;;;;;;1.73;0.90;;;;;;;;;;5054082;28;20934;-89
2022/11/09 23:24:01;;;;;;;3.13;1.00;;;;;;;;;;5054823;28;20447;-87
2022/11/09 23:26:28;;;;;;;1.77;0.93;;;;;;;;;;5054040;28;20938;-86
2022/11/09 23:28:55;;;;;;;1.53;0.80;;;;;;;;;;5052646;28;20450;-86
2022/11/09 23:31:23;;;;;;;1.30;0.90;;;10.60;99.90;;;;;;5053647;28;20573;-87
2022/11/09 23:33:53;;;;;;;1.03;0.93;;;;;;;;;;5053377;28;20453;-86
2022/11/09 23:36:22;;;;;;;1.23;1.10;;;;;;;;;;5053756;28;20454;-84
2022/11/09 23:38:49;;;;;;;2.93;1.07;;;;;;;;;;5053187;28;20825;-85
2022/11/09 23:41:16;;;;;;;1.37;1.27;;;;;;;;;;5054038;28;20453;-84
2022/11/09 23:43:43;;;;;;;3.10;1.20;;;;;;;;;;5052764;28;20504;-87
2022/11/09 23:46:12;;;;;;;1.40;1.30;;;10.60;99.90;;;;;;5053041;28;20810;-85
2022/11/09 23:48:39;;;;;;;3.33;1.10;;;;;;;;;;5053588;28;20446;-85
2022/11/09 23:51:06;;;;;;;1.47;1.10;;;;;;;;;;5053499;28;20486;-86
2022/11/09 23:53:41;;;;;;;1.10;1.00;;;;;;;;;;5054323;28;20459;-90
2022/11/09 23:56:09;;;;;;;1.47;1.00;;;;;;;;;;5054150;28;20453;-90
2022/11/09 23:58:39;;;;;;;1.20;1.10;;;;;;;;;;5053742;28;20930;-91
